AAL409 KEWR-KPIT
Flight info
| Callsign | AAL409 |
|---|---|
| Flight time | 0h 53m |
| Altitude | 24000 |
| Route | DCT ZIMMZ Q42 MIKYG Q480 VINSE DEMME5 |
| Aircraft | B736/M-SDE2E3FGHIRWXY/LB1 |
Departure
| Time | 2026-04-24 01:38 |
|---|---|
| Airport | Newark Liberty International Airport (KEWR) |
Arrival
| Time | 2026-04-24 02:31 |
|---|---|
| Airport | Pittsburgh International Airport (KPIT) |
| Time | Latitude | Longitude | Altitude | Speed | Heading |
|---|---|---|---|---|---|
| 2026-04-24 00:46 | 40.68561 | -74.17962 | 18 ft | 0 kts | 360° |
| 2026-04-24 01:12 | 40.68547 | -74.17962 | 19 ft | 2 kts | 360° |
| 2026-04-24 01:13 | 40.68532 | -74.17970 | 20 ft | 2 kts | 133° |
| 2026-04-24 01:13 | 40.68541 | -74.17988 | 18 ft | 2 kts | 117° |
| 2026-04-24 01:13 | 40.68549 | -74.18007 | 21 ft | 2 kts | 116° |
| 2026-04-24 01:13 | 40.68557 | -74.18026 | 20 ft | 2 kts | 123° |
| 2026-04-24 01:14 | 40.68558 | -74.18028 | 20 ft | 0 kts | 123° |
| 2026-04-24 01:32 | 40.68538 | -74.18027 | 19 ft | 5 kts | 206° |
| 2026-04-24 01:32 | 40.68502 | -74.18055 | 18 ft | 7 kts | 210° |
| 2026-04-24 01:32 | 40.68457 | -74.18070 | 18 ft | 7 kts | 178° |
| 2026-04-24 01:32 | 40.68410 | -74.18064 | 18 ft | 7 kts | 172° |
| 2026-04-24 01:33 | 40.68367 | -74.18046 | 17 ft | 7 kts | 134° |
| 2026-04-24 01:33 | 40.68360 | -74.17984 | 18 ft | 8 kts | 78° |
| 2026-04-24 01:33 | 40.68369 | -74.17917 | 18 ft | 7 kts | 82° |
| 2026-04-24 01:33 | 40.68360 | -74.17854 | 21 ft | 7 kts | 106° |
| 2026-04-24 01:34 | 40.68347 | -74.17793 | 19 ft | 7 kts | 106° |
| 2026-04-24 01:34 | 40.68323 | -74.17742 | 20 ft | 7 kts | 149° |
| 2026-04-24 01:34 | 40.68282 | -74.17712 | 17 ft | 7 kts | 150° |
| 2026-04-24 01:34 | 40.68240 | -74.17680 | 17 ft | 8 kts | 152° |
| 2026-04-24 01:35 | 40.68188 | -74.17693 | 17 ft | 8 kts | 206° |
| 2026-04-24 01:35 | 40.68139 | -74.17725 | 18 ft | 8 kts | 206° |
| 2026-04-24 01:35 | 40.68092 | -74.17755 | 17 ft | 7 kts | 206° |
| 2026-04-24 01:35 | 40.68047 | -74.17783 | 17 ft | 7 kts | 206° |
| 2026-04-24 01:36 | 40.68003 | -74.17811 | 17 ft | 7 kts | 206° |
| 2026-04-24 01:36 | 40.67958 | -74.17840 | 18 ft | 8 kts | 206° |
| 2026-04-24 01:36 | 40.67896 | -74.17880 | 20 ft | 12 kts | 206° |
| 2026-04-24 01:36 | 40.67808 | -74.17938 | 19 ft | 17 kts | 206° |
| 2026-04-24 01:37 | 40.67698 | -74.18005 | 19 ft | 17 kts | 204° |
| 2026-04-24 01:37 | 40.67602 | -74.18039 | 18 ft | 13 kts | 153° |
| 2026-04-24 01:37 | 40.67566 | -74.17941 | 19 ft | 12 kts | 70° |
| 2026-04-24 01:37 | 40.67609 | -74.17898 | 19 ft | 0 kts | 26° |
| 2026-04-24 01:38 | 40.67794 | -74.17783 | 17 ft | 77 kts | 25° |
| 2026-04-24 01:38 | 40.68557 | -74.17316 | 41 ft | 160 kts | 21° |
| 2026-04-24 01:38 | 40.69643 | -74.16533 | 624 ft | 196 kts | 31° |
| 2026-04-24 01:38 | 40.70600 | -74.15526 | 2369 ft | 157 kts | 39° |
| 2026-04-24 01:39 | 40.71418 | -74.14345 | 3125 ft | 201 kts | 44° |
| 2026-04-24 01:39 | 40.72539 | -74.13054 | 3534 ft | 219 kts | 28° |
| 2026-04-24 01:39 | 40.73813 | -74.11868 | 4322 ft | 230 kts | 33° |
| 2026-04-24 01:39 | 40.75094 | -74.10528 | 5097 ft | 238 kts | 28° |
| 2026-04-24 01:40 | 40.76634 | -74.09865 | 5860 ft | 234 kts | 355° |
| 2026-04-24 01:40 | 40.78194 | -74.10358 | 6681 ft | 232 kts | 326° |
| 2026-04-24 01:40 | 40.79293 | -74.11861 | 7676 ft | 229 kts | 303° |
| 2026-04-24 01:40 | 40.79924 | -74.13805 | 8632 ft | 233 kts | 287° |
| 2026-04-24 01:41 | 40.80054 | -74.15957 | 9644 ft | 237 kts | 278° |
| 2026-04-24 01:41 | 40.80073 | -74.18147 | 10523 ft | 240 kts | 277° |
| 2026-04-24 01:41 | 40.80079 | -74.20375 | 11315 ft | 245 kts | 278° |
| 2026-04-24 01:41 | 40.80084 | -74.22645 | 12128 ft | 249 kts | 278° |
| 2026-04-24 01:42 | 40.80091 | -74.24955 | 12795 ft | 259 kts | 279° |
| 2026-04-24 01:42 | 40.80110 | -74.27456 | 12986 ft | 286 kts | 278° |
| 2026-04-24 01:42 | 40.80129 | -74.30167 | 13401 ft | 302 kts | 278° |
| 2026-04-24 01:42 | 40.80142 | -74.32982 | 14088 ft | 309 kts | 278° |
| 2026-04-24 01:43 | 40.80150 | -74.35783 | 14895 ft | 309 kts | 277° |
| 2026-04-24 01:43 | 40.80157 | -74.38628 | 15697 ft | 310 kts | 277° |
| 2026-04-24 01:43 | 40.80167 | -74.41490 | 16467 ft | 313 kts | 277° |
| 2026-04-24 01:43 | 40.80179 | -74.44378 | 17213 ft | 316 kts | 276° |
| 2026-04-24 01:44 | 40.80191 | -74.47290 | 17978 ft | 319 kts | 276° |
| 2026-04-24 01:44 | 40.80203 | -74.50226 | 18669 ft | 321 kts | 276° |
| 2026-04-24 01:44 | 40.80215 | -74.53194 | 19289 ft | 325 kts | 276° |
| 2026-04-24 01:44 | 40.80227 | -74.56195 | 19898 ft | 329 kts | 276° |
| 2026-04-24 01:45 | 40.80238 | -74.59225 | 20545 ft | 332 kts | 276° |
| 2026-04-24 01:45 | 40.80248 | -74.62294 | 21139 ft | 336 kts | 275° |
| 2026-04-24 01:45 | 40.80258 | -74.65393 | 21704 ft | 340 kts | 275° |
| 2026-04-24 01:45 | 40.80267 | -74.68535 | 22323 ft | 344 kts | 275° |
| 2026-04-24 01:46 | 40.80276 | -74.71713 | 22928 ft | 347 kts | 275° |
| 2026-04-24 01:46 | 40.80284 | -74.74917 | 23514 ft | 352 kts | 275° |
| 2026-04-24 01:46 | 40.80290 | -74.78158 | 23870 ft | 354 kts | 275° |
| 2026-04-24 01:46 | 40.80295 | -74.81395 | 23887 ft | 352 kts | 275° |
| 2026-04-24 01:47 | 40.80300 | -74.84602 | 23909 ft | 356 kts | 275° |
| 2026-04-24 01:47 | 40.80304 | -74.87875 | 23901 ft | 356 kts | 275° |
| 2026-04-24 01:47 | 40.80306 | -74.91141 | 23916 ft | 358 kts | 275° |
| 2026-04-24 01:47 | 40.80311 | -74.94489 | 23927 ft | 371 kts | 275° |
| 2026-04-24 01:48 | 40.80315 | -74.97947 | 23938 ft | 383 kts | 275° |
| 2026-04-24 01:48 | 40.80316 | -75.01523 | 23934 ft | 395 kts | 274° |
| 2026-04-24 01:48 | 40.80315 | -75.05187 | 23936 ft | 404 kts | 274° |
| 2026-04-24 01:48 | 40.80313 | -75.08946 | 23933 ft | 413 kts | 274° |
| 2026-04-24 01:49 | 40.80231 | -75.12776 | 23922 ft | 422 kts | 269° |
| 2026-04-24 01:49 | 40.79762 | -75.16651 | 23928 ft | 432 kts | 264° |
| 2026-04-24 01:49 | 40.79167 | -75.20512 | 23934 ft | 437 kts | 263° |
| 2026-04-24 01:49 | 40.78563 | -75.24457 | 23925 ft | 441 kts | 264° |
| 2026-04-24 01:50 | 40.77970 | -75.28431 | 23922 ft | 440 kts | 264° |
| 2026-04-24 01:50 | 40.77389 | -75.32393 | 23926 ft | 440 kts | 264° |
| 2026-04-24 01:50 | 40.76783 | -75.36351 | 23920 ft | 442 kts | 261° |
| 2026-04-24 01:50 | 40.75860 | -75.40239 | 23923 ft | 447 kts | 253° |
| 2026-04-24 01:51 | 40.74534 | -75.43972 | 23940 ft | 451 kts | 249° |
| 2026-04-24 01:51 | 40.73121 | -75.47666 | 23922 ft | 451 kts | 249° |
| 2026-04-24 01:51 | 40.71701 | -75.51362 | 23925 ft | 451 kts | 249° |
| 2026-04-24 01:51 | 40.70291 | -75.55057 | 23931 ft | 451 kts | 249° |
| 2026-04-24 01:52 | 40.68889 | -75.58763 | 23932 ft | 451 kts | 249° |
| 2026-04-24 01:52 | 40.67494 | -75.62474 | 23931 ft | 452 kts | 250° |
| 2026-04-24 01:52 | 40.66103 | -75.66182 | 23949 ft | 452 kts | 250° |
| 2026-04-24 01:52 | 40.64712 | -75.69892 | 23940 ft | 452 kts | 249° |
| 2026-04-24 01:53 | 40.63320 | -75.73600 | 23938 ft | 452 kts | 249° |
| 2026-04-24 01:53 | 40.61926 | -75.77306 | 23939 ft | 452 kts | 249° |
| 2026-04-24 01:53 | 40.60525 | -75.81020 | 23936 ft | 452 kts | 249° |
| 2026-04-24 01:53 | 40.59123 | -75.84728 | 23912 ft | 452 kts | 249° |
| 2026-04-24 01:54 | 40.57715 | -75.88435 | 23914 ft | 453 kts | 249° |
| 2026-04-24 01:54 | 40.56307 | -75.92135 | 23914 ft | 453 kts | 249° |
| 2026-04-24 01:54 | 40.54897 | -75.95837 | 23915 ft | 453 kts | 249° |
| 2026-04-24 01:54 | 40.53485 | -75.99540 | 23908 ft | 453 kts | 249° |
| 2026-04-24 01:55 | 40.52090 | -76.03195 | 23912 ft | 453 kts | 249° |
| 2026-04-24 01:55 | 40.50675 | -76.06897 | 23913 ft | 453 kts | 249° |
| 2026-04-24 01:55 | 40.49254 | -76.10614 | 23908 ft | 453 kts | 249° |
| 2026-04-24 01:55 | 40.47839 | -76.14309 | 23916 ft | 453 kts | 249° |
| 2026-04-24 01:56 | 40.46418 | -76.18014 | 23910 ft | 453 kts | 249° |
| 2026-04-24 01:56 | 40.44997 | -76.21716 | 23908 ft | 453 kts | 248° |
| 2026-04-24 01:56 | 40.43578 | -76.25411 | 23910 ft | 454 kts | 248° |
| 2026-04-24 01:56 | 40.42156 | -76.29105 | 23904 ft | 454 kts | 248° |
| 2026-04-24 01:57 | 40.40731 | -76.32805 | 23902 ft | 454 kts | 248° |
| 2026-04-24 01:57 | 40.39322 | -76.36458 | 23904 ft | 454 kts | 248° |
| 2026-04-24 01:57 | 40.37894 | -76.40158 | 23904 ft | 454 kts | 248° |
| 2026-04-24 01:57 | 40.36466 | -76.43853 | 23904 ft | 455 kts | 248° |
| 2026-04-24 01:58 | 40.35033 | -76.47553 | 23902 ft | 455 kts | 248° |
| 2026-04-24 01:58 | 40.33594 | -76.51250 | 23901 ft | 455 kts | 248° |
| 2026-04-24 01:58 | 40.32133 | -76.54930 | 23904 ft | 455 kts | 247° |
| 2026-04-24 01:58 | 40.30659 | -76.58605 | 23906 ft | 456 kts | 247° |
| 2026-04-24 01:59 | 40.29179 | -76.62277 | 23904 ft | 456 kts | 247° |
| 2026-04-24 01:59 | 40.27698 | -76.65952 | 23906 ft | 456 kts | 247° |
| 2026-04-24 01:59 | 40.26218 | -76.69627 | 23905 ft | 456 kts | 247° |
| 2026-04-24 01:59 | 40.24738 | -76.73305 | 23907 ft | 457 kts | 247° |
| 2026-04-24 02:00 | 40.23257 | -76.76983 | 23906 ft | 457 kts | 247° |
| 2026-04-24 02:00 | 40.21772 | -76.80667 | 23914 ft | 457 kts | 246° |
| 2026-04-24 02:00 | 40.20289 | -76.84345 | 23919 ft | 457 kts | 246° |
| 2026-04-24 02:00 | 40.18805 | -76.88021 | 23923 ft | 458 kts | 246° |
| 2026-04-24 02:01 | 40.17317 | -76.91701 | 23918 ft | 458 kts | 246° |
| 2026-04-24 02:01 | 40.15826 | -76.95384 | 23906 ft | 458 kts | 246° |
| 2026-04-24 02:01 | 40.14335 | -76.99064 | 23914 ft | 458 kts | 246° |
| 2026-04-24 02:01 | 40.12840 | -77.02747 | 23912 ft | 459 kts | 246° |
| 2026-04-24 02:02 | 40.11344 | -77.06431 | 23896 ft | 459 kts | 246° |
| 2026-04-24 02:02 | 40.09846 | -77.10112 | 23912 ft | 458 kts | 246° |
| 2026-04-24 02:02 | 40.08349 | -77.13787 | 23919 ft | 459 kts | 246° |
| 2026-04-24 02:02 | 40.06845 | -77.17476 | 23905 ft | 459 kts | 246° |
| 2026-04-24 02:03 | 40.03859 | -77.24784 | 23920 ft | 459 kts | 246° |
| 2026-04-24 02:03 | 40.02354 | -77.28463 | 23915 ft | 459 kts | 246° |
| 2026-04-24 02:03 | 40.00850 | -77.32138 | 23928 ft | 459 kts | 246° |
| 2026-04-24 02:04 | 39.99340 | -77.35820 | 23926 ft | 460 kts | 246° |
| 2026-04-24 02:04 | 39.97844 | -77.39505 | 23911 ft | 458 kts | 248° |
| 2026-04-24 02:04 | 39.96709 | -77.43329 | 23918 ft | 444 kts | 257° |
| 2026-04-24 02:04 | 39.96032 | -77.47198 | 23923 ft | 434 kts | 264° |
| 2026-04-24 02:05 | 39.95718 | -77.51084 | 23932 ft | 430 kts | 271° |
| 2026-04-24 02:05 | 39.95805 | -77.54981 | 23939 ft | 431 kts | 275° |
| 2026-04-24 02:05 | 39.95955 | -77.58887 | 23925 ft | 432 kts | 275° |
| 2026-04-24 02:05 | 39.96106 | -77.62807 | 23929 ft | 433 kts | 275° |
| 2026-04-24 02:06 | 39.96246 | -77.66724 | 23933 ft | 434 kts | 275° |
| 2026-04-24 02:06 | 39.96334 | -77.69333 | 23936 ft | 434 kts | 275° |
| 2026-04-24 02:06 | 39.96460 | -77.73272 | 23932 ft | 434 kts | 274° |
| 2026-04-24 02:06 | 39.96579 | -77.77200 | 23934 ft | 434 kts | 274° |
| 2026-04-24 02:07 | 39.96696 | -77.81131 | 23933 ft | 433 kts | 274° |
| 2026-04-24 02:07 | 39.96812 | -77.85054 | 23942 ft | 433 kts | 274° |
| 2026-04-24 02:07 | 39.96927 | -77.88983 | 23937 ft | 433 kts | 274° |
| 2026-04-24 02:07 | 39.97041 | -77.92903 | 23938 ft | 433 kts | 274° |
| 2026-04-24 02:08 | 39.97153 | -77.96825 | 23935 ft | 433 kts | 274° |
| 2026-04-24 02:08 | 39.97263 | -78.00749 | 23938 ft | 433 kts | 274° |
| 2026-04-24 02:08 | 39.97371 | -78.04669 | 23941 ft | 433 kts | 274° |
| 2026-04-24 02:08 | 39.97478 | -78.08585 | 23946 ft | 433 kts | 274° |
| 2026-04-24 02:09 | 39.97584 | -78.12505 | 23952 ft | 433 kts | 274° |
| 2026-04-24 02:09 | 39.97688 | -78.16423 | 23953 ft | 433 kts | 274° |
| 2026-04-24 02:09 | 39.97792 | -78.20347 | 23957 ft | 433 kts | 274° |
| 2026-04-24 02:09 | 39.97893 | -78.24223 | 23959 ft | 433 kts | 274° |
| 2026-04-24 02:10 | 39.97994 | -78.28144 | 23962 ft | 433 kts | 274° |
| 2026-04-24 02:10 | 39.98094 | -78.32074 | 23964 ft | 434 kts | 274° |
| 2026-04-24 02:10 | 39.98192 | -78.36001 | 23967 ft | 434 kts | 274° |
| 2026-04-24 02:10 | 39.98289 | -78.39939 | 23972 ft | 434 kts | 274° |
| 2026-04-24 02:11 | 39.98386 | -78.43885 | 23976 ft | 434 kts | 274° |
| 2026-04-24 02:11 | 39.98480 | -78.47821 | 23969 ft | 434 kts | 274° |
| 2026-04-24 02:11 | 39.98574 | -78.51756 | 23973 ft | 434 kts | 274° |
| 2026-04-24 02:11 | 39.98666 | -78.55693 | 23963 ft | 435 kts | 273° |
| 2026-04-24 02:12 | 39.98756 | -78.59635 | 23965 ft | 435 kts | 273° |
| 2026-04-24 02:12 | 39.98845 | -78.63575 | 23966 ft | 435 kts | 273° |
| 2026-04-24 02:12 | 39.98933 | -78.67511 | 23971 ft | 435 kts | 273° |
| 2026-04-24 02:12 | 39.99020 | -78.71444 | 23963 ft | 431 kts | 273° |
| 2026-04-24 02:13 | 39.99103 | -78.75320 | 23968 ft | 425 kts | 273° |
| 2026-04-24 02:13 | 39.99184 | -78.79116 | 23975 ft | 424 kts | 273° |
| 2026-04-24 02:13 | 39.99265 | -78.82971 | 23975 ft | 427 kts | 273° |
| 2026-04-24 02:13 | 39.99347 | -78.86900 | 23801 ft | 430 kts | 273° |
| 2026-04-24 02:14 | 39.99426 | -78.90750 | 23183 ft | 427 kts | 273° |
| 2026-04-24 02:14 | 39.99502 | -78.94589 | 22508 ft | 420 kts | 273° |
| 2026-04-24 02:14 | 39.99576 | -78.98367 | 21818 ft | 413 kts | 273° |
| 2026-04-24 02:14 | 39.99647 | -79.02091 | 21148 ft | 408 kts | 273° |
| 2026-04-24 02:15 | 39.99717 | -79.05769 | 20504 ft | 403 kts | 273° |
| 2026-04-24 02:15 | 39.99785 | -79.09404 | 19863 ft | 399 kts | 273° |
| 2026-04-24 02:15 | 39.99852 | -79.13014 | 19234 ft | 396 kts | 272° |
| 2026-04-24 02:15 | 39.99917 | -79.16584 | 18591 ft | 393 kts | 272° |
| 2026-04-24 02:16 | 39.99981 | -79.20141 | 17899 ft | 391 kts | 272° |
| 2026-04-24 02:16 | 40.00043 | -79.23681 | 17232 ft | 388 kts | 272° |
| 2026-04-24 02:16 | 40.00104 | -79.27184 | 16597 ft | 385 kts | 272° |
| 2026-04-24 02:16 | 40.00162 | -79.30611 | 15996 ft | 381 kts | 272° |
| 2026-04-24 02:17 | 40.00220 | -79.34099 | 15397 ft | 378 kts | 272° |
| 2026-04-24 02:17 | 40.00293 | -79.37462 | 14809 ft | 375 kts | 276° |
| 2026-04-24 02:17 | 40.00830 | -79.40761 | 14228 ft | 370 kts | 290° |
| 2026-04-24 02:17 | 40.01906 | -79.43797 | 13553 ft | 367 kts | 302° |
| 2026-04-24 02:18 | 40.03427 | -79.46387 | 12934 ft | 353 kts | 311° |
| 2026-04-24 02:18 | 40.05016 | -79.48763 | 12367 ft | 343 kts | 311° |
| 2026-04-24 02:18 | 40.06574 | -79.51088 | 11844 ft | 337 kts | 311° |
| 2026-04-24 02:18 | 40.08105 | -79.53397 | 11326 ft | 337 kts | 310° |
| 2026-04-24 02:19 | 40.09663 | -79.55772 | 10983 ft | 353 kts | 310° |
| 2026-04-24 02:19 | 40.11268 | -79.58233 | 10785 ft | 353 kts | 310° |
| 2026-04-24 02:19 | 40.12829 | -79.60632 | 10629 ft | 339 kts | 309° |
| 2026-04-24 02:19 | 40.14294 | -79.62972 | 10482 ft | 326 kts | 308° |
| 2026-04-24 02:20 | 40.15687 | -79.65244 | 10342 ft | 314 kts | 308° |
| 2026-04-24 02:20 | 40.17006 | -79.67398 | 10213 ft | 301 kts | 308° |
| 2026-04-24 02:20 | 40.18279 | -79.69470 | 10073 ft | 283 kts | 308° |
| 2026-04-24 02:20 | 40.19459 | -79.71431 | 9904 ft | 267 kts | 302° |
| 2026-04-24 02:21 | 40.20308 | -79.73576 | 9607 ft | 264 kts | 293° |
| 2026-04-24 02:21 | 40.21027 | -79.75786 | 9265 ft | 265 kts | 292° |
| 2026-04-24 02:21 | 40.21751 | -79.78017 | 8937 ft | 267 kts | 292° |
| 2026-04-24 02:21 | 40.22658 | -79.80138 | 8575 ft | 270 kts | 312° |
| 2026-04-24 02:22 | 40.24205 | -79.81505 | 8257 ft | 272 kts | 338° |
| 2026-04-24 02:22 | 40.26053 | -79.82048 | 7932 ft | 274 kts | 349° |
| 2026-04-24 02:22 | 40.27946 | -79.82397 | 7602 ft | 272 kts | 350° |
| 2026-04-24 02:22 | 40.29772 | -79.82733 | 7252 ft | 265 kts | 350° |
| 2026-04-24 02:23 | 40.31578 | -79.83072 | 6946 ft | 258 kts | 349° |
| 2026-04-24 02:23 | 40.33336 | -79.83411 | 6605 ft | 254 kts | 349° |
| 2026-04-24 02:23 | 40.35066 | -79.83750 | 6280 ft | 248 kts | 349° |
| 2026-04-24 02:23 | 40.36759 | -79.84086 | 5976 ft | 242 kts | 348° |
| 2026-04-24 02:24 | 40.38359 | -79.84596 | 5763 ft | 232 kts | 341° |
| 2026-04-24 02:24 | 40.39875 | -79.85194 | 5541 ft | 224 kts | 341° |
| 2026-04-24 02:24 | 40.41340 | -79.85773 | 5342 ft | 217 kts | 341° |
| 2026-04-24 02:24 | 40.42779 | -79.86334 | 5177 ft | 215 kts | 341° |
| 2026-04-24 02:25 | 40.44211 | -79.86887 | 5006 ft | 215 kts | 341° |
| 2026-04-24 02:25 | 40.45653 | -79.87442 | 4826 ft | 216 kts | 340° |
| 2026-04-24 02:25 | 40.46907 | -79.88426 | 4603 ft | 210 kts | 304° |
| 2026-04-24 02:25 | 40.47402 | -79.90175 | 4475 ft | 204 kts | 279° |
| 2026-04-24 02:26 | 40.47640 | -79.92001 | 4273 ft | 207 kts | 279° |
| 2026-04-24 02:26 | 40.47840 | -79.93874 | 4098 ft | 205 kts | 275° |
| 2026-04-24 02:26 | 40.47926 | -79.95685 | 3997 ft | 192 kts | 272° |
| 2026-04-24 02:26 | 40.47969 | -79.97349 | 3958 ft | 172 kts | 272° |
| 2026-04-24 02:27 | 40.48004 | -79.98839 | 3951 ft | 159 kts | 272° |
| 2026-04-24 02:27 | 40.48057 | -80.00358 | 4028 ft | 177 kts | 271° |
| 2026-04-24 02:27 | 40.48085 | -80.01922 | 3934 ft | 164 kts | 271° |
| 2026-04-24 02:27 | 40.48116 | -80.03373 | 3735 ft | 154 kts | 271° |
| 2026-04-24 02:28 | 40.48148 | -80.04736 | 3566 ft | 147 kts | 271° |
| 2026-04-24 02:28 | 40.48181 | -80.06091 | 3382 ft | 149 kts | 271° |
| 2026-04-24 02:28 | 40.48215 | -80.07440 | 3211 ft | 145 kts | 272° |
| 2026-04-24 02:28 | 40.48249 | -80.08754 | 2983 ft | 143 kts | 272° |
| 2026-04-24 02:29 | 40.48281 | -80.10037 | 2803 ft | 139 kts | 271° |
| 2026-04-24 02:29 | 40.48312 | -80.11274 | 2620 ft | 133 kts | 271° |
| 2026-04-24 02:29 | 40.48342 | -80.12457 | 2450 ft | 127 kts | 271° |
| 2026-04-24 02:29 | 40.48372 | -80.13642 | 2299 ft | 133 kts | 270° |
| 2026-04-24 02:30 | 40.48404 | -80.14882 | 2120 ft | 139 kts | 270° |
| 2026-04-24 02:30 | 40.48437 | -80.16189 | 1899 ft | 145 kts | 271° |
| 2026-04-24 02:30 | 40.48472 | -80.17504 | 1725 ft | 145 kts | 271° |
| 2026-04-24 02:30 | 40.48488 | -80.18804 | 1597 ft | 140 kts | 271° |
| 2026-04-24 02:31 | 40.48527 | -80.20082 | 1372 ft | 137 kts | 272° |
| 2026-04-24 02:31 | 40.48568 | -80.21309 | 1167 ft | 133 kts | 271° |
| 2026-04-24 02:31 | 40.48600 | -80.22435 | 1138 ft | 107 kts | 272° |
| 2026-04-24 02:31 | 40.48623 | -80.23146 | 1137 ft | 49 kts | 272° |
| 2026-04-24 02:32 | 40.48633 | -80.23523 | 1133 ft | 23 kts | 272° |
| 2026-04-24 02:32 | 40.48670 | -80.23725 | 1133 ft | 22 kts | 290° |
| 2026-04-24 02:32 | 40.48740 | -80.23886 | 1141 ft | 13 kts | 303° |
| 2026-04-24 02:32 | 40.48748 | -80.23902 | 1141 ft | 0 kts | 304° |
| 2026-04-24 02:34 | 40.48749 | -80.23904 | 1141 ft | 2 kts | 304° |
| 2026-04-24 02:34 | 40.48769 | -80.23943 | 1141 ft | 6 kts | 303° |
| 2026-04-24 02:34 | 40.48794 | -80.23986 | 1143 ft | 6 kts | 322° |
| 2026-04-24 02:34 | 40.48832 | -80.24007 | 1145 ft | 6 kts | 352° |
| 2026-04-24 02:35 | 40.48888 | -80.24004 | 1145 ft | 10 kts | 2° |
| 2026-04-24 02:35 | 40.48958 | -80.24001 | 1147 ft | 11 kts | 2° |
| 2026-04-24 02:35 | 40.49039 | -80.23997 | 1150 ft | 12 kts | 2° |
| 2026-04-24 02:35 | 40.49119 | -80.23993 | 1148 ft | 11 kts | 2° |
| 2026-04-24 02:36 | 40.49195 | -80.24001 | 1147 ft | 11 kts | 322° |
| 2026-04-24 02:36 | 40.49208 | -80.24101 | 1147 ft | 11 kts | 268° |
| 2026-04-24 02:36 | 40.49232 | -80.24172 | 1150 ft | 8 kts | 320° |
| 2026-04-24 02:36 | 40.49278 | -80.24185 | 1150 ft | 5 kts | 2° |
| 2026-04-24 02:37 | 40.49286 | -80.24185 | 1150 ft | 0 kts | 3° |